sensor_id;sensor_type;location;lat;lon;timestamp;P1;durP1;ratioP1;P2;durP2;ratioP2
6564;SDS011;3316;44.118;27.258;2023-09-08T00:00:37;8.60;;;5.47;;
6564;SDS011;3316;44.118;27.258;2023-09-08T00:03:02;12.90;;;5.50;;
6564;SDS011;3316;44.118;27.258;2023-09-08T00:05:28;12.10;;;5.87;;
6564;SDS011;3316;44.118;27.258;2023-09-08T00:07:54;10.30;;;5.60;;
6564;SDS011;3316;44.118;27.258;2023-09-08T00:10:19;11.77;;;5.43;;
6564;SDS011;3316;44.118;27.258;2023-09-08T00:12:45;11.40;;;5.53;;
6564;SDS011;3316;44.118;27.258;2023-09-08T00:15:10;9.00;;;4.90;;
6564;SDS011;3316;44.118;27.258;2023-09-08T00:17:36;10.17;;;5.30;;
6564;SDS011;3316;44.118;27.258;2023-09-08T00:20:02;10.13;;;5.27;;
6564;SDS011;3316;44.118;27.258;2023-09-08T00:22:33;10.17;;;5.70;;
6564;SDS011;3316;44.118;27.258;2023-09-08T00:24:59;14.80;;;5.47;;
6564;SDS011;3316;44.118;27.258;2023-09-08T00:27:24;9.93;;;5.67;;
6564;SDS011;3316;44.118;27.258;2023-09-08T00:29:49;8.47;;;4.83;;
6564;SDS011;3316;44.118;27.258;2023-09-08T00:32:15;7.63;;;5.00;;
6564;SDS011;3316;44.118;27.258;2023-09-08T00:34:41;8.97;;;5.60;;
6564;SDS011;3316;44.118;27.258;2023-09-08T00:37:07;9.00;;;5.33;;
6564;SDS011;3316;44.118;27.258;2023-09-08T00:39:34;10.10;;;5.83;;
6564;SDS011;3316;44.118;27.258;2023-09-08T00:42:03;10.17;;;5.43;;
6564;SDS011;3316;44.118;27.258;2023-09-08T00:44:29;6.73;;;4.90;;
6564;SDS011;3316;44.118;27.258;2023-09-08T00:46:54;9.57;;;5.50;;
6564;SDS011;3316;44.118;27.258;2023-09-08T00:49:20;10.63;;;5.90;;
6564;SDS011;3316;44.118;27.258;2023-09-08T00:51:46;8.57;;;5.40;;
6564;SDS011;3316;44.118;27.258;2023-09-08T00:54:11;6.60;;;4.63;;
6564;SDS011;3316;44.118;27.258;2023-09-08T00:56:37;10.20;;;5.10;;
6564;SDS011;3316;44.118;27.258;2023-09-08T00:59:04;9.03;;;5.40;;
6564;SDS011;3316;44.118;27.258;2023-09-08T01:01:30;10.20;;;5.20;;
6564;SDS011;3316;44.118;27.258;2023-09-08T01:03:56;11.40;;;5.77;;
6564;SDS011;3316;44.118;27.258;2023-09-08T01:06:22;8.57;;;6.00;;
6564;SDS011;3316;44.118;27.258;2023-09-08T01:08:48;9.43;;;5.30;;
6564;SDS011;3316;44.118;27.258;2023-09-08T01:11:15;9.53;;;5.67;;
6564;SDS011;3316;44.118;27.258;2023-09-08T01:13:43;11.33;;;5.80;;
6564;SDS011;3316;44.118;27.258;2023-09-08T01:16:09;10.03;;;5.50;;
6564;SDS011;3316;44.118;27.258;2023-09-08T01:18:35;7.03;;;5.47;;
6564;SDS011;3316;44.118;27.258;2023-09-08T01:26:59;11.13;;;5.53;;
6564;SDS011;3316;44.118;27.258;2023-09-08T01:29:25;9.27;;;5.80;;
6564;SDS011;3316;44.118;27.258;2023-09-08T01:31:51;7.73;;;5.77;;
6564;SDS011;3316;44.118;27.258;2023-09-08T01:34:17;9.70;;;5.73;;
6564;SDS011;3316;44.118;27.258;2023-09-08T01:36:44;10.73;;;6.03;;
6564;SDS011;3316;44.118;27.258;2023-09-08T01:39:10;8.33;;;5.97;;
6564;SDS011;3316;44.118;27.258;2023-09-08T01:41:36;10.43;;;5.23;;
6564;SDS011;3316;44.118;27.258;2023-09-08T01:44:01;9.33;;;5.30;;
6564;SDS011;3316;44.118;27.258;2023-09-08T01:46:33;8.43;;;5.23;;
6564;SDS011;3316;44.118;27.258;2023-09-08T01:48:58;15.80;;;6.07;;
6564;SDS011;3316;44.118;27.258;2023-09-08T01:51:24;13.00;;;6.10;;
6564;SDS011;3316;44.118;27.258;2023-09-08T01:53:49;9.50;;;5.90;;
6564;SDS011;3316;44.118;27.258;2023-09-08T01:56:15;9.07;;;5.70;;
6564;SDS011;3316;44.118;27.258;2023-09-08T01:58:40;12.27;;;5.70;;
6564;SDS011;3316;44.118;27.258;2023-09-08T02:01:05;11.47;;;5.87;;
6564;SDS011;3316;44.118;27.258;2023-09-08T02:03:31;9.00;;;5.97;;
6564;SDS011;3316;44.118;27.258;2023-09-08T02:05:57;12.20;;;6.70;;
6564;SDS011;3316;44.118;27.258;2023-09-08T02:08:22;10.87;;;6.13;;
6564;SDS011;3316;44.118;27.258;2023-09-08T02:10:48;11.10;;;6.50;;
6564;SDS011;3316;44.118;27.258;2023-09-08T02:13:13;9.83;;;6.30;;
6564;SDS011;3316;44.118;27.258;2023-09-08T02:15:39;10.23;;;5.27;;
6564;SDS011;3316;44.118;27.258;2023-09-08T02:18:05;9.50;;;5.30;;
6564;SDS011;3316;44.118;27.258;2023-09-08T02:20:32;8.80;;;5.47;;
6564;SDS011;3316;44.118;27.258;2023-09-08T02:22:57;12.17;;;5.53;;
6564;SDS011;3316;44.118;27.258;2023-09-08T02:25:28;13.70;;;5.63;;
6564;SDS011;3316;44.118;27.258;2023-09-08T02:27:54;10.03;;;5.27;;
6564;SDS011;3316;44.118;27.258;2023-09-08T02:30:19;11.07;;;6.07;;
6564;SDS011;3316;44.118;27.258;2023-09-08T02:32:44;9.50;;;5.73;;
6564;SDS011;3316;44.118;27.258;2023-09-08T02:35:10;15.37;;;5.93;;
6564;SDS011;3316;44.118;27.258;2023-09-08T02:37:36;12.07;;;5.97;;
6564;SDS011;3316;44.118;27.258;2023-09-08T02:40:01;17.40;;;6.63;;
6564;SDS011;3316;44.118;27.258;2023-09-08T02:42:28;11.07;;;5.83;;
6564;SDS011;3316;44.118;27.258;2023-09-08T02:44:53;8.97;;;5.17;;
6564;SDS011;3316;44.118;27.258;2023-09-08T02:47:19;8.97;;;5.47;;
6564;SDS011;3316;44.118;27.258;2023-09-08T02:49:44;14.60;;;5.90;;
6564;SDS011;3316;44.118;27.258;2023-09-08T02:52:10;11.23;;;5.97;;
6564;SDS011;3316;44.118;27.258;2023-09-08T02:54:35;9.53;;;5.73;;
6564;SDS011;3316;44.118;27.258;2023-09-08T02:57:00;6.97;;;5.17;;
6564;SDS011;3316;44.118;27.258;2023-09-08T02:59:26;8.73;;;5.23;;
6564;SDS011;3316;44.118;27.258;2023-09-08T03:01:51;8.87;;;5.50;;
6564;SDS011;3316;44.118;27.258;2023-09-08T03:04:17;8.47;;;5.67;;
6564;SDS011;3316;44.118;27.258;2023-09-08T03:06:42;9.80;;;5.83;;
6564;SDS011;3316;44.118;27.258;2023-09-08T03:09:07;11.53;;;5.97;;
6564;SDS011;3316;44.118;27.258;2023-09-08T03:11:33;14.83;;;6.13;;
6564;SDS011;3316;44.118;27.258;2023-09-08T03:13:58;13.97;;;5.80;;
6564;SDS011;3316;44.118;27.258;2023-09-08T03:16:24;9.87;;;5.67;;
6564;SDS011;3316;44.118;27.258;2023-09-08T03:18:49;8.23;;;6.27;;
6564;SDS011;3316;44.118;27.258;2023-09-08T03:21:15;9.60;;;5.53;;
6564;SDS011;3316;44.118;27.258;2023-09-08T03:23:41;13.53;;;5.87;;
6564;SDS011;3316;44.118;27.258;2023-09-08T03:26:08;12.43;;;6.00;;
6564;SDS011;3316;44.118;27.258;2023-09-08T03:28:34;7.53;;;5.23;;
6564;SDS011;3316;44.118;27.258;2023-09-08T03:31:01;13.23;;;6.17;;
6564;SDS011;3316;44.118;27.258;2023-09-08T03:33:27;10.63;;;6.00;;
6564;SDS011;3316;44.118;27.258;2023-09-08T03:35:52;11.70;;;5.33;;
6564;SDS011;3316;44.118;27.258;2023-09-08T03:38:18;16.27;;;6.20;;
6564;SDS011;3316;44.118;27.258;2023-09-08T03:40:43;12.27;;;6.07;;
6564;SDS011;3316;44.118;27.258;2023-09-08T03:43:09;7.67;;;5.73;;
6564;SDS011;3316;44.118;27.258;2023-09-08T03:45:34;11.17;;;6.20;;
6564;SDS011;3316;44.118;27.258;2023-09-08T03:48:00;10.43;;;5.90;;
6564;SDS011;3316;44.118;27.258;2023-09-08T03:50:26;11.63;;;6.10;;
6564;SDS011;3316;44.118;27.258;2023-09-08T03:52:51;10.03;;;6.03;;
6564;SDS011;3316;44.118;27.258;2023-09-08T03:55:18;9.83;;;6.20;;
6564;SDS011;3316;44.118;27.258;2023-09-08T03:57:44;13.13;;;6.60;;
6564;SDS011;3316;44.118;27.258;2023-09-08T04:00:09;14.57;;;6.23;;
6564;SDS011;3316;44.118;27.258;2023-09-08T04:02:36;14.00;;;6.63;;
6564;SDS011;3316;44.118;27.258;2023-09-08T04:05:01;13.40;;;6.43;;
6564;SDS011;3316;44.118;27.258;2023-09-08T04:07:27;9.67;;;6.10;;
6564;SDS011;3316;44.118;27.258;2023-09-08T04:09:52;15.47;;;7.13;;
6564;SDS011;3316;44.118;27.258;2023-09-08T04:12:18;14.13;;;8.10;;
6564;SDS011;3316;44.118;27.258;2023-09-08T04:14:43;10.13;;;6.70;;
6564;SDS011;3316;44.118;27.258;2023-09-08T04:17:09;11.23;;;6.77;;
6564;SDS011;3316;44.118;27.258;2023-09-08T04:19:34;8.63;;;6.00;;
6564;SDS011;3316;44.118;27.258;2023-09-08T04:21:59;12.63;;;5.83;;
6564;SDS011;3316;44.118;27.258;2023-09-08T04:24:25;8.27;;;6.67;;
6564;SDS011;3316;44.118;27.258;2023-09-08T04:26:50;10.52;;;5.88;;
6564;SDS011;3316;44.118;27.258;2023-09-08T04:29:16;13.43;;;6.20;;
6564;SDS011;3316;44.118;27.258;2023-09-08T04:31:41;11.03;;;6.03;;
6564;SDS011;3316;44.118;27.258;2023-09-08T04:34:07;34.00;;;14.25;;
6564;SDS011;3316;44.118;27.258;2023-09-08T04:36:32;13.30;;;5.80;;
6564;SDS011;3316;44.118;27.258;2023-09-08T04:38:58;13.73;;;5.57;;
6564;SDS011;3316;44.118;27.258;2023-09-08T04:41:23;15.93;;;5.97;;
6564;SDS011;3316;44.118;27.258;2023-09-08T04:43:48;8.60;;;5.13;;
6564;SDS011;3316;44.118;27.258;2023-09-08T04:46:14;9.83;;;5.53;;
6564;SDS011;3316;44.118;27.258;2023-09-08T04:48:39;15.30;;;6.73;;
6564;SDS011;3316;44.118;27.258;2023-09-08T04:51:05;8.02;;;5.20;;
6564;SDS011;3316;44.118;27.258;2023-09-08T04:53:30;12.07;;;6.00;;
6564;SDS011;3316;44.118;27.258;2023-09-08T04:55:55;6.73;;;5.63;;
6564;SDS011;3316;44.118;27.258;2023-09-08T04:58:21;13.00;;;5.87;;
6564;SDS011;3316;44.118;27.258;2023-09-08T05:00:46;13.32;;;6.32;;
6564;SDS011;3316;44.118;27.258;2023-09-08T05:03:12;10.00;;;5.50;;
6564;SDS011;3316;44.118;27.258;2023-09-08T05:05:37;8.07;;;5.17;;
6564;SDS011;3316;44.118;27.258;2023-09-08T05:08:04;17.67;;;6.47;;
6564;SDS011;3316;44.118;27.258;2023-09-08T05:10:29;8.93;;;5.25;;
6564;SDS011;3316;44.118;27.258;2023-09-08T05:12:55;8.82;;;5.50;;
6564;SDS011;3316;44.118;27.258;2023-09-08T05:15:20;13.87;;;5.50;;
6564;SDS011;3316;44.118;27.258;2023-09-08T05:17:46;10.70;;;5.32;;
6564;SDS011;3316;44.118;27.258;2023-09-08T05:20:12;10.55;;;5.65;;
6564;SDS011;3316;44.118;27.258;2023-09-08T05:22:37;7.45;;;5.13;;
6564;SDS011;3316;44.118;27.258;2023-09-08T05:25:03;9.32;;;5.05;;
6564;SDS011;3316;44.118;27.258;2023-09-08T05:27:29;10.57;;;4.97;;
6564;SDS011;3316;44.118;27.258;2023-09-08T05:29:54;9.88;;;4.97;;
6564;SDS011;3316;44.118;27.258;2023-09-08T05:32:20;7.28;;;5.10;;
6564;SDS011;3316;44.118;27.258;2023-09-08T05:34:45;8.52;;;5.45;;
6564;SDS011;3316;44.118;27.258;2023-09-08T05:37:11;14.25;;;8.57;;
6564;SDS011;3316;44.118;27.258;2023-09-08T05:39:36;8.98;;;5.78;;
6564;SDS011;3316;44.118;27.258;2023-09-08T05:42:02;18.42;;;8.82;;
6564;SDS011;3316;44.118;27.258;2023-09-08T05:44:27;15.48;;;7.22;;
6564;SDS011;3316;44.118;27.258;2023-09-08T05:46:53;21.67;;;7.55;;
6564;SDS011;3316;44.118;27.258;2023-09-08T05:49:18;11.27;;;5.55;;
6564;SDS011;3316;44.118;27.258;2023-09-08T05:51:44;23.33;;;10.75;;
6564;SDS011;3316;44.118;27.258;2023-09-08T05:54:09;16.15;;;7.20;;
6564;SDS011;3316;44.118;27.258;2023-09-08T05:56:36;12.02;;;5.47;;
6564;SDS011;3316;44.118;27.258;2023-09-08T05:59:02;8.35;;;5.20;;
6564;SDS011;3316;44.118;27.258;2023-09-08T06:01:28;10.85;;;4.88;;
6564;SDS011;3316;44.118;27.258;2023-09-08T06:03:54;8.55;;;4.70;;
6564;SDS011;3316;44.118;27.258;2023-09-08T06:06:20;15.90;;;6.47;;
6564;SDS011;3316;44.118;27.258;2023-09-08T06:08:46;16.50;;;5.80;;
6564;SDS011;3316;44.118;27.258;2023-09-08T06:11:12;19.50;;;9.20;;
6564;SDS011;3316;44.118;27.258;2023-09-08T06:13:37;13.43;;;5.55;;
6564;SDS011;3316;44.118;27.258;2023-09-08T06:16:03;7.88;;;5.20;;
6564;SDS011;3316;44.118;27.258;2023-09-08T06:18:28;9.88;;;5.10;;
6564;SDS011;3316;44.118;27.258;2023-09-08T06:20:56;12.10;;;5.18;;
6564;SDS011;3316;44.118;27.258;2023-09-08T06:23:22;19.40;;;6.38;;
6564;SDS011;3316;44.118;27.258;2023-09-08T06:25:48;10.48;;;3.95;;
6564;SDS011;3316;44.118;27.258;2023-09-08T06:28:14;5.50;;;3.50;;
6564;SDS011;3316;44.118;27.258;2023-09-08T06:30:39;15.15;;;4.13;;
6564;SDS011;3316;44.118;27.258;2023-09-08T06:33:07;12.48;;;3.88;;
6564;SDS011;3316;44.118;27.258;2023-09-08T06:35:33;30.17;;;7.88;;
6564;SDS011;3316;44.118;27.258;2023-09-08T06:37:59;11.65;;;4.13;;
6564;SDS011;3316;44.118;27.258;2023-09-08T06:40:25;10.00;;;4.50;;
6564;SDS011;3316;44.118;27.258;2023-09-08T06:42:51;10.45;;;4.47;;
6564;SDS011;3316;44.118;27.258;2023-09-08T06:45:17;13.82;;;4.20;;
6564;SDS011;3316;44.118;27.258;2023-09-08T06:47:43;6.82;;;3.83;;
6564;SDS011;3316;44.118;27.258;2023-09-08T06:50:09;9.57;;;4.20;;
6564;SDS011;3316;44.118;27.258;2023-09-08T06:52:34;8.52;;;4.05;;
6564;SDS011;3316;44.118;27.258;2023-09-08T06:55:00;13.57;;;4.70;;
6564;SDS011;3316;44.118;27.258;2023-09-08T06:57:25;12.65;;;4.57;;
6564;SDS011;3316;44.118;27.258;2023-09-08T06:59:51;15.50;;;4.97;;
6564;SDS011;3316;44.118;27.258;2023-09-08T07:02:16;16.92;;;4.85;;
6564;SDS011;3316;44.118;27.258;2023-09-08T07:04:42;17.02;;;4.65;;
6564;SDS011;3316;44.118;27.258;2023-09-08T07:07:07;15.75;;;4.90;;
6564;SDS011;3316;44.118;27.258;2023-09-08T07:09:34;12.02;;;4.88;;
6564;SDS011;3316;44.118;27.258;2023-09-08T07:12:01;10.32;;;4.43;;
6564;SDS011;3316;44.118;27.258;2023-09-08T07:14:26;11.50;;;5.60;;
6564;SDS011;3316;44.118;27.258;2023-09-08T07:16:51;13.75;;;6.80;;
6564;SDS011;3316;44.118;27.258;2023-09-08T07:19:17;7.28;;;4.47;;
6564;SDS011;3316;44.118;27.258;2023-09-08T07:21:42;9.60;;;4.80;;
6564;SDS011;3316;44.118;27.258;2023-09-08T07:24:08;15.35;;;4.57;;
6564;SDS011;3316;44.118;27.258;2023-09-08T07:26:33;9.70;;;4.63;;
6564;SDS011;3316;44.118;27.258;2023-09-08T07:28:59;18.80;;;5.30;;
6564;SDS011;3316;44.118;27.258;2023-09-08T07:31:24;12.68;;;5.20;;
6564;SDS011;3316;44.118;27.258;2023-09-08T07:33:50;13.10;;;5.63;;
6564;SDS011;3316;44.118;27.258;2023-09-08T07:36:16;14.43;;;4.85;;
6564;SDS011;3316;44.118;27.258;2023-09-08T07:38:41;22.13;;;5.57;;
6564;SDS011;3316;44.118;27.258;2023-09-08T07:41:06;17.10;;;5.82;;
6564;SDS011;3316;44.118;27.258;2023-09-08T07:43:33;15.40;;;5.55;;
6564;SDS011;3316;44.118;27.258;2023-09-08T07:45:58;7.38;;;4.55;;
6564;SDS011;3316;44.118;27.258;2023-09-08T07:48:24;22.00;;;5.80;;
6564;SDS011;3316;44.118;27.258;2023-09-08T07:50:49;14.35;;;4.50;;
6564;SDS011;3316;44.118;27.258;2023-09-08T07:53:15;12.65;;;4.90;;
6564;SDS011;3316;44.118;27.258;2023-09-08T07:55:40;10.95;;;5.40;;
6564;SDS011;3316;44.118;27.258;2023-09-08T07:58:07;15.90;;;5.28;;
6564;SDS011;3316;44.118;27.258;2023-09-08T08:00:33;13.40;;;5.00;;
6564;SDS011;3316;44.118;27.258;2023-09-08T08:02:58;14.50;;;4.85;;
6564;SDS011;3316;44.118;27.258;2023-09-08T08:05:25;11.40;;;4.75;;
6564;SDS011;3316;44.118;27.258;2023-09-08T08:07:50;10.63;;;4.70;;
6564;SDS011;3316;44.118;27.258;2023-09-08T08:10:16;20.05;;;4.80;;
6564;SDS011;3316;44.118;27.258;2023-09-08T08:12:43;13.70;;;4.75;;
6564;SDS011;3316;44.118;27.258;2023-09-08T08:15:09;16.13;;;4.65;;
6564;SDS011;3316;44.118;27.258;2023-09-08T08:17:35;10.88;;;4.90;;
6564;SDS011;3316;44.118;27.258;2023-09-08T08:20:02;14.68;;;5.18;;
6564;SDS011;3316;44.118;27.258;2023-09-08T08:22:33;21.08;;;4.90;;
6564;SDS011;3316;44.118;27.258;2023-09-08T08:24:59;21.83;;;6.20;;
6564;SDS011;3316;44.118;27.258;2023-09-08T08:27:24;16.80;;;5.10;;
6564;SDS011;3316;44.118;27.258;2023-09-08T08:29:50;11.27;;;4.65;;
6564;SDS011;3316;44.118;27.258;2023-09-08T08:32:16;10.43;;;5.03;;
6564;SDS011;3316;44.118;27.258;2023-09-08T08:34:42;9.40;;;3.97;;
6564;SDS011;3316;44.118;27.258;2023-09-08T08:37:07;11.50;;;4.55;;
6564;SDS011;3316;44.118;27.258;2023-09-08T08:39:32;10.35;;;4.35;;
6564;SDS011;3316;44.118;27.258;2023-09-08T08:41:58;7.70;;;4.10;;
6564;SDS011;3316;44.118;27.258;2023-09-08T08:44:23;10.73;;;4.07;;
6564;SDS011;3316;44.118;27.258;2023-09-08T08:46:50;11.80;;;4.50;;
6564;SDS011;3316;44.118;27.258;2023-09-08T08:49:16;9.38;;;3.92;;
6564;SDS011;3316;44.118;27.258;2023-09-08T08:51:44;7.80;;;4.63;;
6564;SDS011;3316;44.118;27.258;2023-09-08T08:54:11;15.68;;;3.95;;
6564;SDS011;3316;44.118;27.258;2023-09-08T08:56:38;3.45;;;2.58;;
6564;SDS011;3316;44.118;27.258;2023-09-08T08:59:04;8.35;;;3.70;;
6564;SDS011;3316;44.118;27.258;2023-09-08T09:01:30;15.82;;;3.53;;
6564;SDS011;3316;44.118;27.258;2023-09-08T09:03:57;11.52;;;3.30;;
6564;SDS011;3316;44.118;27.258;2023-09-08T09:06:23;12.02;;;4.13;;
6564;SDS011;3316;44.118;27.258;2023-09-08T09:08:48;4.10;;;3.13;;
6564;SDS011;3316;44.118;27.258;2023-09-08T09:11:14;7.25;;;2.97;;
6564;SDS011;3316;44.118;27.258;2023-09-08T09:13:39;5.05;;;3.33;;
6564;SDS011;3316;44.118;27.258;2023-09-08T09:16:05;4.63;;;2.92;;
6564;SDS011;3316;44.118;27.258;2023-09-08T09:18:39;12.25;;;3.47;;
6564;SDS011;3316;44.118;27.258;2023-09-08T09:21:19;7.00;;;3.20;;
6564;SDS011;3316;44.118;27.258;2023-09-08T09:23:45;3.80;;;2.90;;
6564;SDS011;3316;44.118;27.258;2023-09-08T09:26:10;8.63;;;3.03;;
6564;SDS011;3316;44.118;27.258;2023-09-08T09:28:48;10.63;;;3.78;;
6564;SDS011;3316;44.118;27.258;2023-09-08T09:31:14;4.68;;;3.08;;
6564;SDS011;3316;44.118;27.258;2023-09-08T09:33:39;9.20;;;3.10;;
6564;SDS011;3316;44.118;27.258;2023-09-08T09:36:04;8.82;;;3.90;;
6564;SDS011;3316;44.118;27.258;2023-09-08T09:38:31;8.05;;;3.58;;
6564;SDS011;3316;44.118;27.258;2023-09-08T09:40:59;7.20;;;3.60;;
6564;SDS011;3316;44.118;27.258;2023-09-08T09:43:25;7.25;;;2.92;;
6564;SDS011;3316;44.118;27.258;2023-09-08T09:45:53;6.82;;;3.30;;
6564;SDS011;3316;44.118;27.258;2023-09-08T09:48:19;8.43;;;3.47;;
6564;SDS011;3316;44.118;27.258;2023-09-08T09:50:48;7.35;;;3.53;;
6564;SDS011;3316;44.118;27.258;2023-09-08T09:53:14;3.70;;;3.00;;
6564;SDS011;3316;44.118;27.258;2023-09-08T09:55:41;8.75;;;3.13;;
6564;SDS011;3316;44.118;27.258;2023-09-08T09:58:09;4.63;;;2.88;;
6564;SDS011;3316;44.118;27.258;2023-09-08T10:00:39;7.07;;;3.50;;
6564;SDS011;3316;44.118;27.258;2023-09-08T10:03:12;6.07;;;3.20;;
6564;SDS011;3316;44.118;27.258;2023-09-08T10:05:39;7.63;;;3.22;;
6564;SDS011;3316;44.118;27.258;2023-09-08T10:08:04;9.02;;;3.10;;
6564;SDS011;3316;44.118;27.258;2023-09-08T10:10:30;3.97;;;2.60;;
6564;SDS011;3316;44.118;27.258;2023-09-08T10:12:59;6.70;;;3.28;;
6564;SDS011;3316;44.118;27.258;2023-09-08T10:15:28;5.13;;;3.20;;
6564;SDS011;3316;44.118;27.258;2023-09-08T10:17:56;5.60;;;2.92;;
6564;SDS011;3316;44.118;27.258;2023-09-08T10:20:25;4.82;;;3.65;;
6564;SDS011;3316;44.118;27.258;2023-09-08T10:22:53;4.82;;;3.05;;
6564;SDS011;3316;44.118;27.258;2023-09-08T10:25:25;5.32;;;3.00;;
6564;SDS011;3316;44.118;27.258;2023-09-08T10:27:56;5.28;;;2.90;;
6564;SDS011;3316;44.118;27.258;2023-09-08T10:30:21;12.15;;;4.15;;
6564;SDS011;3316;44.118;27.258;2023-09-08T10:32:48;9.40;;;3.03;;
6564;SDS011;3316;44.118;27.258;2023-09-08T10:35:15;6.40;;;3.35;;
6564;SDS011;3316;44.118;27.258;2023-09-08T10:37:42;5.90;;;3.05;;
6564;SDS011;3316;44.118;27.258;2023-09-08T10:42:49;9.50;;;3.63;;
6564;SDS011;3316;44.118;27.258;2023-09-08T10:45:30;6.95;;;3.13;;
6564;SDS011;3316;44.118;27.258;2023-09-08T10:47:56;7.82;;;3.33;;
6564;SDS011;3316;44.118;27.258;2023-09-08T10:50:26;5.65;;;3.60;;
6564;SDS011;3316;44.118;27.258;2023-09-08T10:55:41;7.70;;;3.00;;
6564;SDS011;3316;44.118;27.258;2023-09-08T10:58:09;9.20;;;3.58;;
6564;SDS011;3316;44.118;27.258;2023-09-08T11:00:45;10.35;;;3.15;;
6564;SDS011;3316;44.118;27.258;2023-09-08T11:03:13;9.68;;;3.58;;
6564;SDS011;3316;44.118;27.258;2023-09-08T11:05:41;5.07;;;3.10;;
6564;SDS011;3316;44.118;27.258;2023-09-08T11:08:07;9.82;;;3.40;;
6564;SDS011;3316;44.118;27.258;2023-09-08T11:10:32;7.07;;;3.03;;
6564;SDS011;3316;44.118;27.258;2023-09-08T11:12:58;7.80;;;4.15;;
6564;SDS011;3316;44.118;27.258;2023-09-08T11:15:25;9.30;;;2.90;;
6564;SDS011;3316;44.118;27.258;2023-09-08T11:17:50;15.60;;;3.35;;
6564;SDS011;3316;44.118;27.258;2023-09-08T11:20:25;9.20;;;3.55;;
6564;SDS011;3316;44.118;27.258;2023-09-08T11:22:51;6.70;;;3.85;;
6564;SDS011;3316;44.118;27.258;2023-09-08T11:25:16;12.93;;;4.57;;
6564;SDS011;3316;44.118;27.258;2023-09-08T11:27:42;7.22;;;3.38;;
6564;SDS011;3316;44.118;27.258;2023-09-08T11:30:09;10.35;;;3.95;;
6564;SDS011;3316;44.118;27.258;2023-09-08T11:32:37;9.48;;;3.30;;
6564;SDS011;3316;44.118;27.258;2023-09-08T11:35:06;4.40;;;2.55;;
6564;SDS011;3316;44.118;27.258;2023-09-08T11:37:37;9.45;;;3.30;;
6564;SDS011;3316;44.118;27.258;2023-09-08T11:40:07;12.40;;;3.60;;
6564;SDS011;3316;44.118;27.258;2023-09-08T11:42:39;13.98;;;3.90;;
6564;SDS011;3316;44.118;27.258;2023-09-08T11:45:12;9.32;;;3.20;;
6564;SDS011;3316;44.118;27.258;2023-09-08T11:47:40;6.38;;;3.08;;
6564;SDS011;3316;44.118;27.258;2023-09-08T11:50:07;9.27;;;3.10;;
6564;SDS011;3316;44.118;27.258;2023-09-08T11:52:33;12.07;;;3.00;;
6564;SDS011;3316;44.118;27.258;2023-09-08T11:54:59;6.75;;;2.83;;
6564;SDS011;3316;44.118;27.258;2023-09-08T11:57:25;14.50;;;4.03;;
6564;SDS011;3316;44.118;27.258;2023-09-08T11:59:50;7.70;;;2.80;;
6564;SDS011;3316;44.118;27.258;2023-09-08T12:02:17;4.20;;;2.50;;
6564;SDS011;3316;44.118;27.258;2023-09-08T12:04:42;8.80;;;3.22;;
6564;SDS011;3316;44.118;27.258;2023-09-08T12:07:11;6.90;;;2.30;;
6564;SDS011;3316;44.118;27.258;2023-09-08T12:09:40;8.23;;;2.78;;
6564;SDS011;3316;44.118;27.258;2023-09-08T12:12:10;7.00;;;2.70;;
6564;SDS011;3316;44.118;27.258;2023-09-08T12:14:40;6.65;;;2.80;;
6564;SDS011;3316;44.118;27.258;2023-09-08T12:17:07;9.32;;;2.55;;
6564;SDS011;3316;44.118;27.258;2023-09-08T12:19:33;5.55;;;2.58;;
6564;SDS011;3316;44.118;27.258;2023-09-08T12:22:02;18.55;;;3.40;;
6564;SDS011;3316;44.118;27.258;2023-09-08T12:27:18;10.20;;;3.40;;
6564;SDS011;3316;44.118;27.258;2023-09-08T12:29:57;3.75;;;2.40;;
6564;SDS011;3316;44.118;27.258;2023-09-08T12:32:25;15.70;;;3.08;;
6564;SDS011;3316;44.118;27.258;2023-09-08T12:34:53;10.43;;;2.55;;
6564;SDS011;3316;44.118;27.258;2023-09-08T12:37:20;7.70;;;3.05;;
6564;SDS011;3316;44.118;27.258;2023-09-08T12:39:46;6.18;;;2.53;;
6564;SDS011;3316;44.118;27.258;2023-09-08T12:42:12;6.63;;;2.25;;
6564;SDS011;3316;44.118;27.258;2023-09-08T12:44:37;10.98;;;2.83;;
6564;SDS011;3316;44.118;27.258;2023-09-08T12:47:03;7.30;;;2.83;;
6564;SDS011;3316;44.118;27.258;2023-09-08T12:49:28;3.80;;;2.60;;
6564;SDS011;3316;44.118;27.258;2023-09-08T12:51:54;5.03;;;2.78;;
6564;SDS011;3316;44.118;27.258;2023-09-08T12:54:19;3.75;;;2.00;;
6564;SDS011;3316;44.118;27.258;2023-09-08T12:56:45;7.35;;;2.28;;
6564;SDS011;3316;44.118;27.258;2023-09-08T12:59:10;7.10;;;2.38;;
6564;SDS011;3316;44.118;27.258;2023-09-08T13:01:35;3.10;;;2.55;;
6564;SDS011;3316;44.118;27.258;2023-09-08T13:04:01;4.75;;;2.35;;
6564;SDS011;3316;44.118;27.258;2023-09-08T13:06:26;5.80;;;2.35;;
6564;SDS011;3316;44.118;27.258;2023-09-08T13:08:52;10.15;;;2.58;;
6564;SDS011;3316;44.118;27.258;2023-09-08T13:11:17;12.60;;;2.97;;
6564;SDS011;3316;44.118;27.258;2023-09-08T13:13:43;5.18;;;2.60;;
6564;SDS011;3316;44.118;27.258;2023-09-08T13:16:08;7.90;;;2.97;;
6564;SDS011;3316;44.118;27.258;2023-09-08T13:18:34;5.15;;;2.00;;
6564;SDS011;3316;44.118;27.258;2023-09-08T13:21:03;5.57;;;2.45;;
6564;SDS011;3316;44.118;27.258;2023-09-08T13:23:28;7.82;;;2.40;;
6564;SDS011;3316;44.118;27.258;2023-09-08T13:25:54;7.55;;;2.40;;
6564;SDS011;3316;44.118;27.258;2023-09-08T13:28:19;6.35;;;2.97;;
6564;SDS011;3316;44.118;27.258;2023-09-08T13:30:45;6.03;;;3.40;;
6564;SDS011;3316;44.118;27.258;2023-09-08T13:33:10;6.07;;;2.75;;
6564;SDS011;3316;44.118;27.258;2023-09-08T13:35:35;5.57;;;2.97;;
6564;SDS011;3316;44.118;27.258;2023-09-08T13:38:01;11.00;;;2.90;;
6564;SDS011;3316;44.118;27.258;2023-09-08T13:40:28;5.93;;;3.05;;
6564;SDS011;3316;44.118;27.258;2023-09-08T13:42:53;11.10;;;3.58;;
6564;SDS011;3316;44.118;27.258;2023-09-08T13:45:19;8.18;;;2.90;;
6564;SDS011;3316;44.118;27.258;2023-09-08T13:47:44;15.68;;;3.30;;
6564;SDS011;3316;44.118;27.258;2023-09-08T13:50:10;5.53;;;3.13;;
6564;SDS011;3316;44.118;27.258;2023-09-08T13:52:35;4.78;;;2.40;;
6564;SDS011;3316;44.118;27.258;2023-09-08T13:55:01;4.22;;;2.50;;
6564;SDS011;3316;44.118;27.258;2023-09-08T13:57:26;5.53;;;2.35;;
6564;SDS011;3316;44.118;27.258;2023-09-08T13:59:52;8.82;;;2.70;;
6564;SDS011;3316;44.118;27.258;2023-09-08T14:02:19;8.52;;;3.92;;
6564;SDS011;3316;44.118;27.258;2023-09-08T14:04:44;11.40;;;3.85;;
6564;SDS011;3316;44.118;27.258;2023-09-08T14:07:10;5.90;;;2.22;;
6564;SDS011;3316;44.118;27.258;2023-09-08T14:09:36;9.93;;;2.45;;
6564;SDS011;3316;44.118;27.258;2023-09-08T14:12:02;7.75;;;2.78;;
6564;SDS011;3316;44.118;27.258;2023-09-08T14:14:28;8.25;;;2.70;;
6564;SDS011;3316;44.118;27.258;2023-09-08T14:16:53;29.17;;;5.07;;
6564;SDS011;3316;44.118;27.258;2023-09-08T14:19:18;8.27;;;3.20;;
6564;SDS011;3316;44.118;27.258;2023-09-08T14:21:44;6.25;;;2.30;;
6564;SDS011;3316;44.118;27.258;2023-09-08T14:24:09;9.20;;;2.92;;
6564;SDS011;3316;44.118;27.258;2023-09-08T14:26:35;12.25;;;4.00;;
6564;SDS011;3316;44.118;27.258;2023-09-08T14:29:01;14.32;;;3.33;;
6564;SDS011;3316;44.118;27.258;2023-09-08T14:31:26;10.18;;;3.40;;
6564;SDS011;3316;44.118;27.258;2023-09-08T14:33:52;11.30;;;4.00;;
6564;SDS011;3316;44.118;27.258;2023-09-08T14:36:17;6.97;;;3.20;;
6564;SDS011;3316;44.118;27.258;2023-09-08T14:38:44;5.07;;;2.75;;
6564;SDS011;3316;44.118;27.258;2023-09-08T14:41:09;4.88;;;2.33;;
6564;SDS011;3316;44.118;27.258;2023-09-08T14:43:35;5.60;;;2.28;;
6564;SDS011;3316;44.118;27.258;2023-09-08T14:46:00;8.82;;;2.67;;
6564;SDS011;3316;44.118;27.258;2023-09-08T14:48:28;10.63;;;3.72;;
6564;SDS011;3316;44.118;27.258;2023-09-08T14:50:54;7.05;;;3.17;;
6564;SDS011;3316;44.118;27.258;2023-09-08T14:53:20;5.95;;;2.88;;
6564;SDS011;3316;44.118;27.258;2023-09-08T14:55:46;4.80;;;2.45;;
6564;SDS011;3316;44.118;27.258;2023-09-08T14:58:13;4.13;;;2.40;;
6564;SDS011;3316;44.118;27.258;2023-09-08T15:00:39;5.45;;;2.85;;
6564;SDS011;3316;44.118;27.258;2023-09-08T15:03:05;9.45;;;3.10;;